createdAt,value
2019-01-14T00:00:02.455Z,94.14
2019-01-14T00:01:02.592Z,94.19
2019-01-14T00:02:02.379Z,93.99
2019-01-14T00:03:02.609Z,94.31
2019-01-14T00:04:02.294Z,94.32
2019-01-14T00:05:02.291Z,94.3
2019-01-14T00:06:02.323Z,94.24
2019-01-14T00:07:02.434Z,94.36
2019-01-14T00:08:02.546Z,94.29
2019-01-14T00:09:02.295Z,94.3
2019-01-14T00:10:02.427Z,93.82
2019-01-14T00:11:02.361Z,93.47
2019-01-14T00:12:02.344Z,93.78
2019-01-14T00:13:02.282Z,93.87
2019-01-14T00:14:02.477Z,93.71
2019-01-14T00:15:02.791Z,93.62
2019-01-14T00:16:02.622Z,93.08
2019-01-14T00:17:02.368Z,93.43
2019-01-14T00:18:02.379Z,93.24
2019-01-14T00:19:02.352Z,93.47
2019-01-14T00:20:02.423Z,93.62
2019-01-14T00:21:02.266Z,93.8
2019-01-14T00:22:02.381Z,93.78
2019-01-14T00:23:02.261Z,93.69
2019-01-14T00:24:02.657Z,93.73
2019-01-14T00:25:02.399Z,93.63
2019-01-14T00:26:02.315Z,93.7
2019-01-14T00:27:02.283Z,93.77
2019-01-14T00:28:02.300Z,93.76
2019-01-14T00:29:02.257Z,93.48
2019-01-14T00:30:02.447Z,93.83
2019-01-14T00:31:02.245Z,93.7
2019-01-14T00:32:02.505Z,93.78
2019-01-14T00:33:02.437Z,93.07
2019-01-14T00:34:02.308Z,92.08
2019-01-14T00:35:02.235Z,91.17
2019-01-14T00:36:02.334Z,91.45
2019-01-14T00:37:02.394Z,91.76
2019-01-14T00:38:02.268Z,91.44
2019-01-14T00:39:02.426Z,91.34
2019-01-14T00:40:02.514Z,91.03
2019-01-14T00:41:02.269Z,91.07
2019-01-14T00:42:02.253Z,91.49
2019-01-14T00:43:02.285Z,91.44
2019-01-14T00:44:02.252Z,91.4
2019-01-14T00:45:02.236Z,91.2
2019-01-14T00:46:02.508Z,90.92
2019-01-14T00:47:02.511Z,90.85
2019-01-14T00:48:02.517Z,90.93
2019-01-14T00:49:02.368Z,90.81
2019-01-14T00:50:02.552Z,91.25
2019-01-14T00:51:02.452Z,91.14
2019-01-14T00:52:02.249Z,91.19
2019-01-14T00:53:02.675Z,91.1
2019-01-14T00:54:02.328Z,90.98
2019-01-14T00:55:02.225Z,91.26
2019-01-14T00:56:02.563Z,91.37
2019-01-14T00:57:02.550Z,91.49
2019-01-14T00:58:02.802Z,91.73
2019-01-14T00:59:02.207Z,91.28
2019-01-14T01:00:02.312Z,91.52
2019-01-14T01:01:02.173Z,90.56
2019-01-14T01:02:02.459Z,90.84
2019-01-14T01:03:02.247Z,90.83
2019-01-14T01:04:03.039Z,90.62
2019-01-14T01:05:02.323Z,90.68
2019-01-14T01:06:02.207Z,90.44
2019-01-14T01:07:02.280Z,90.31
2019-01-14T01:08:02.347Z,90.55
2019-01-14T01:09:02.605Z,90.5
2019-01-14T01:10:02.293Z,90.95
2019-01-14T01:11:02.181Z,90.36
2019-01-14T01:12:02.177Z,90.47
2019-01-14T01:13:03.972Z,90.19
2019-01-14T01:14:02.298Z,89.92
2019-01-14T01:15:04.046Z,90.23
2019-01-14T01:16:02.157Z,90.02
2019-01-14T01:17:03.346Z,89.84
2019-01-14T01:18:02.419Z,89.81
2019-01-14T01:19:02.560Z,89.57
2019-01-14T01:20:03.053Z,89.57
2019-01-14T01:21:02.333Z,89.08
2019-01-14T01:22:02.215Z,88.92
2019-01-14T01:23:02.196Z,89.39
2019-01-14T01:24:03.079Z,88.81
2019-01-14T01:25:02.340Z,89.2
2019-01-14T01:26:02.171Z,89.11
2019-01-14T01:27:02.589Z,88.99
2019-01-14T01:28:02.390Z,88.88
2019-01-14T01:29:02.613Z,88.57
2019-01-14T01:30:02.219Z,88.91
2019-01-14T01:31:03.965Z,88.71
2019-01-14T01:32:02.466Z,89.01
2019-01-14T01:33:03.015Z,89.16
2019-01-14T01:34:03.979Z,89.02
2019-01-14T01:35:02.281Z,88.73
2019-01-14T01:36:03.943Z,88.45
2019-01-14T01:37:02.365Z,88.16
2019-01-14T01:38:02.210Z,88.08
2019-01-14T01:39:02.422Z,87.48
2019-01-14T01:40:02.987Z,87.66
2019-01-14T01:41:02.264Z,87.8
2019-01-14T01:42:02.263Z,87.98
2019-01-14T01:43:02.184Z,87.82
2019-01-14T01:44:02.259Z,87.77
2019-01-14T01:45:02.253Z,87.78
2019-01-14T01:46:02.314Z,87.7
2019-01-14T01:47:02.419Z,87.79
2019-01-14T01:48:02.340Z,87.39
2019-01-14T01:49:02.231Z,87.69
2019-01-14T01:50:02.959Z,87.82
2019-01-14T01:51:02.113Z,87.23
2019-01-14T01:52:02.285Z,87.35
2019-01-14T01:53:02.141Z,87.06
2019-01-14T01:54:02.476Z,87.15
2019-01-14T01:55:02.493Z,87.07
2019-01-14T01:56:02.362Z,86.93
2019-01-14T01:57:02.366Z,87.03
2019-01-14T01:58:02.483Z,86.75
2019-01-14T01:59:02.176Z,87.07
2019-01-14T02:00:02.421Z,87.01
2019-01-14T02:01:02.302Z,87.01
2019-01-14T02:02:02.427Z,86.47
2019-01-14T02:03:02.332Z,86.44
2019-01-14T02:04:02.169Z,86.4
2019-01-14T02:05:02.230Z,86.5
2019-01-14T02:06:02.134Z,86.01
2019-01-14T02:07:02.519Z,86.4
2019-01-14T02:08:02.235Z,86.28
2019-01-14T02:09:02.198Z,86.47
2019-01-14T02:10:02.361Z,86.25
2019-01-14T02:11:02.082Z,86.15
2019-01-14T02:12:02.857Z,86.32
2019-01-14T02:13:02.059Z,86.39
2019-01-14T02:14:02.208Z,86.45
2019-01-14T02:15:02.054Z,85.98
2019-01-14T02:16:02.225Z,85.9
2019-01-14T02:17:02.097Z,86.04
2019-01-14T02:18:02.151Z,86.4
2019-01-14T02:19:02.519Z,86.55
2019-01-14T02:20:02.121Z,86.26
2019-01-14T02:21:02.088Z,86.37
2019-01-14T02:22:02.089Z,86.17
2019-01-14T02:23:02.146Z,86.24
2019-01-14T02:24:02.079Z,87.15
2019-01-14T02:25:02.185Z,86.62
2019-01-14T02:26:02.069Z,86.46
2019-01-14T02:27:02.380Z,86.27
2019-01-14T02:28:02.591Z,87.13
2019-01-14T02:29:02.160Z,86.86
2019-01-14T02:30:02.716Z,86.28
2019-01-14T02:31:02.098Z,86.73
2019-01-14T02:32:02.422Z,87.05
2019-01-14T02:33:02.418Z,86.89
2019-01-14T02:34:02.180Z,87.15
2019-01-14T02:35:02.072Z,86.94
2019-01-14T02:36:02.548Z,87.35
2019-01-14T02:37:02.113Z,87.34
2019-01-14T02:38:02.247Z,86.89
2019-01-14T02:39:02.375Z,87.38
2019-01-14T02:40:02.108Z,87.27
2019-01-14T02:41:02.376Z,87.14
2019-01-14T02:42:02.052Z,87.29
2019-01-14T02:43:02.131Z,86.84
2019-01-14T02:44:02.124Z,86.85
2019-01-14T02:45:02.180Z,87.27
2019-01-14T02:46:02.603Z,87.25
2019-01-14T02:47:02.058Z,86.84
2019-01-14T02:48:02.090Z,87.28
2019-01-14T02:49:02.128Z,86.85
2019-01-14T02:50:02.233Z,86.99
2019-01-14T02:51:02.033Z,86.67
2019-01-14T02:52:02.052Z,86.92
2019-01-14T02:53:02.094Z,86.82
2019-01-14T02:54:02.263Z,86.83
2019-01-14T02:55:02.384Z,86.59
2019-01-14T02:56:02.387Z,86.86
2019-01-14T02:57:02.279Z,86.6
2019-01-14T02:58:02.129Z,86.79
2019-01-14T02:59:02.391Z,85.86
2019-01-14T03:00:02.552Z,85.46
2019-01-14T03:01:02.094Z,85.53
2019-01-14T03:02:02.157Z,85.45
2019-01-14T03:03:02.090Z,85.29
2019-01-14T03:04:02.200Z,86.04
2019-01-14T03:05:02.263Z,85.86
2019-01-14T03:06:02.353Z,85.07
2019-01-14T03:07:02.766Z,85.32
2019-01-14T03:08:02.925Z,84.82
2019-01-14T03:09:02.114Z,85.41
2019-01-14T03:10:02.281Z,85.07
2019-01-14T03:11:02.141Z,85.12
2019-01-14T03:12:02.030Z,85.3
2019-01-14T03:13:02.387Z,85.38
2019-01-14T03:14:02.075Z,85.56
2019-01-14T03:15:02.314Z,85.11
2019-01-14T03:16:03.816Z,85.12
2019-01-14T03:17:02.244Z,85.08
2019-01-14T03:18:02.015Z,85.37
2019-01-14T03:19:01.991Z,84.74
2019-01-14T03:20:03.052Z,84.47
2019-01-14T03:21:02.155Z,84.27
2019-01-14T03:22:02.243Z,84.51
2019-01-14T03:23:02.451Z,84.47
2019-01-14T03:24:02.060Z,84.01
2019-01-14T03:25:02.106Z,84.55
2019-01-14T03:26:02.083Z,84.08
2019-01-14T03:27:02.029Z,83.52
2019-01-14T03:28:02.075Z,83.57
2019-01-14T03:29:01.958Z,83.48
2019-01-14T03:30:02.010Z,83.24
2019-01-14T03:31:02.743Z,83.33
2019-01-14T03:32:02.742Z,82.8
2019-01-14T03:33:02.127Z,82.66
2019-01-14T03:34:02.539Z,83.12
2019-01-14T03:35:02.129Z,83.22
2019-01-14T03:36:02.787Z,83.13
2019-01-14T03:37:05.509Z,83.56
2019-01-14T03:38:02.127Z,83.65
2019-01-14T03:39:02.155Z,83.55
2019-01-14T03:40:02.282Z,82.96
2019-01-14T03:41:01.957Z,82.97
2019-01-14T03:42:01.968Z,83.23
2019-01-14T03:43:02.289Z,83.81
2019-01-14T03:44:02.000Z,83.29
2019-01-14T03:45:02.207Z,83.84
2019-01-14T03:46:03.796Z,83.47
2019-01-14T03:47:01.982Z,83.42
2019-01-14T03:48:02.233Z,84.06
2019-01-14T03:49:02.144Z,84.46
2019-01-14T03:50:02.248Z,84.58
2019-01-14T03:51:02.090Z,84.81
2019-01-14T03:52:02.568Z,84.77
2019-01-14T03:53:02.450Z,85.06
2019-01-14T03:54:02.000Z,85.1
2019-01-14T03:55:02.263Z,84.78
2019-01-14T03:56:02.284Z,84.74
2019-01-14T03:57:02.030Z,84.44
2019-01-14T03:58:02.185Z,84.67
2019-01-14T03:59:02.299Z,85.18
2019-01-14T04:00:02.066Z,85.81
2019-01-14T04:01:01.964Z,85.71
2019-01-14T04:02:02.195Z,85.23
2019-01-14T04:03:02.041Z,85.87
2019-01-14T04:04:01.972Z,85.83
2019-01-14T04:05:02.121Z,85.98
2019-01-14T04:06:01.968Z,86.17
2019-01-14T04:07:02.000Z,86.31
2019-01-14T04:08:02.156Z,86.22
2019-01-14T04:09:01.953Z,86.04
2019-01-14T04:10:02.180Z,86.36
2019-01-14T04:11:02.523Z,86.31
2019-01-14T04:12:01.977Z,86.4
2019-01-14T04:13:01.986Z,86.38
2019-01-14T04:14:02.603Z,86.41
2019-01-14T04:15:02.300Z,86.48
2019-01-14T04:16:02.056Z,85.7
2019-01-14T04:17:02.062Z,86.22
2019-01-14T04:18:01.928Z,86.38
2019-01-14T04:19:02.039Z,86.05
2019-01-14T04:20:02.236Z,86.5
2019-01-14T04:21:01.953Z,85.52
2019-01-14T04:22:02.152Z,86.38
2019-01-14T04:23:01.906Z,86.34
2019-01-14T04:24:01.917Z,86.84
2019-01-14T04:25:01.988Z,86.59
2019-01-14T04:26:02.488Z,86.55
2019-01-14T04:27:02.130Z,86.84
2019-01-14T04:28:02.076Z,86.59
2019-01-14T04:29:02.298Z,86.91
2019-01-14T04:30:01.925Z,86.78
2019-01-14T04:31:01.997Z,86.92
2019-01-14T04:32:02.224Z,87.13
2019-01-14T04:33:02.181Z,87.32
2019-01-14T04:34:02.232Z,87.27
2019-01-14T04:35:02.069Z,87.14
2019-01-14T04:36:03.670Z,86.28
2019-01-14T04:37:02.271Z,86.92
2019-01-14T04:38:02.280Z,87.12
2019-01-14T04:39:02.204Z,86.97
2019-01-14T04:40:02.177Z,87.02
2019-01-14T04:41:02.024Z,86.98
2019-01-14T04:42:02.109Z,87.18
2019-01-14T04:43:02.084Z,87.24
2019-01-14T04:44:01.916Z,86.28
2019-01-14T04:45:02.207Z,86.93
2019-01-14T04:46:01.993Z,87.04
2019-01-14T04:47:02.016Z,87.17
2019-01-14T04:48:02.338Z,87.48
2019-01-14T04:49:02.104Z,87.24
2019-01-14T04:50:02.131Z,87.35
2019-01-14T04:51:02.738Z,87.36
2019-01-14T04:52:01.920Z,87.28
2019-01-14T04:53:02.154Z,87.2
2019-01-14T04:54:02.061Z,86.93
2019-01-14T04:55:01.882Z,87.01
2019-01-14T04:56:02.380Z,87.16
2019-01-14T04:57:02.099Z,87.21
2019-01-14T04:58:02.196Z,87.56
2019-01-14T04:59:01.919Z,87.91
2019-01-14T05:00:02.211Z,87.77
2019-01-14T05:01:01.936Z,87.58
2019-01-14T05:02:01.873Z,87.69
2019-01-14T05:03:01.995Z,87.73
2019-01-14T05:04:02.239Z,87.78
2019-01-14T05:05:02.251Z,87.55
2019-01-14T05:06:01.986Z,87.35
2019-01-14T05:07:01.955Z,87.24
2019-01-14T05:08:02.086Z,87.11
2019-01-14T05:09:01.859Z,87.14
2019-01-14T05:10:02.290Z,86.95
2019-01-14T05:11:01.836Z,87.15
2019-01-14T05:12:01.804Z,87.18
2019-01-14T05:13:02.286Z,87.43
2019-01-14T05:14:02.101Z,87.24
2019-01-14T05:15:02.224Z,86.91
2019-01-14T05:16:01.933Z,87.06
2019-01-14T05:17:02.222Z,87.18
2019-01-14T05:18:01.820Z,86.31
2019-01-14T05:19:02.133Z,86.69
2019-01-14T05:20:03.681Z,86.93
2019-01-14T05:21:02.454Z,86.7
2019-01-14T05:22:01.941Z,86.28
2019-01-14T05:23:01.860Z,86.25
2019-01-14T05:24:01.875Z,86.39
2019-01-14T05:25:01.939Z,86.08
2019-01-14T05:26:01.922Z,86.07
2019-01-14T05:27:02.008Z,86.05
2019-01-14T05:28:01.984Z,86.15
2019-01-14T05:29:02.235Z,86.15
2019-01-14T05:30:02.105Z,86
2019-01-14T05:31:02.115Z,85.86
2019-01-14T05:32:01.923Z,85.74
2019-01-14T05:33:02.012Z,85.54
2019-01-14T05:34:01.828Z,85.1
2019-01-14T05:35:02.180Z,85.53
2019-01-14T05:36:02.191Z,85.23
2019-01-14T05:37:02.160Z,83.88
2019-01-14T05:38:02.271Z,84.08
2019-01-14T05:39:02.492Z,83.84
2019-01-14T05:40:02.050Z,84.08
2019-01-14T05:41:02.698Z,83.17
2019-01-14T05:42:01.960Z,83.88
2019-01-14T05:43:02.112Z,83.43
2019-01-14T05:44:01.880Z,83.83
2019-01-14T05:45:01.791Z,83.37
2019-01-14T05:46:01.884Z,84.31
2019-01-14T05:47:01.864Z,84.28
2019-01-14T05:48:02.033Z,83.66
2019-01-14T05:49:02.079Z,84.2
2019-01-14T05:50:02.161Z,84.17
2019-01-14T05:51:01.922Z,84.14
2019-01-14T05:52:02.162Z,83.9
2019-01-14T05:53:02.175Z,84.23
2019-01-14T05:54:02.139Z,84.12
2019-01-14T05:55:03.010Z,84.43
2019-01-14T05:56:01.802Z,84.46
2019-01-14T05:57:02.199Z,84.72
2019-01-14T05:58:01.962Z,84.49
2019-01-14T05:59:02.122Z,84.46
2019-01-14T06:00:02.109Z,84.8
2019-01-14T06:01:01.939Z,84.67
2019-01-14T06:02:01.784Z,84.38
2019-01-14T06:03:01.870Z,84.42
2019-01-14T06:04:02.037Z,84.55
2019-01-14T06:05:03.080Z,84.55
2019-01-14T06:06:01.772Z,84.86
2019-01-14T06:07:02.082Z,85.04
2019-01-14T06:08:02.103Z,84.97
2019-01-14T06:09:02.092Z,84.74
2019-01-14T06:10:01.881Z,85.03
2019-01-14T06:11:02.282Z,84.64
2019-01-14T06:12:02.009Z,84.79
2019-01-14T06:13:01.732Z,85.14
2019-01-14T06:14:01.739Z,85
2019-01-14T06:15:01.808Z,85.13
2019-01-14T06:16:02.215Z,84.87
2019-01-14T06:17:01.706Z,85.17
2019-01-14T06:18:02.043Z,84.85
2019-01-14T06:19:02.045Z,85.29
2019-01-14T06:20:01.879Z,85.38
2019-01-14T06:21:01.891Z,84.88
2019-01-14T06:22:02.161Z,84.92
2019-01-14T06:23:01.776Z,84.75
2019-01-14T06:24:02.190Z,85.15
2019-01-14T06:25:01.695Z,84.68
2019-01-14T06:26:02.179Z,84.67
2019-01-14T06:27:01.733Z,84.64
2019-01-14T06:28:01.804Z,84.53
2019-01-14T06:29:01.946Z,84.46
2019-01-14T06:30:01.723Z,84.74
2019-01-14T06:31:01.753Z,84.53
2019-01-14T06:32:01.720Z,84.27
2019-01-14T06:33:03.146Z,84.23
2019-01-14T06:34:02.595Z,84.21
2019-01-14T06:35:02.039Z,84.41
2019-01-14T06:36:02.048Z,84.53
2019-01-14T06:37:01.981Z,84.43
2019-01-14T06:38:01.672Z,84.49
2019-01-14T06:39:02.392Z,84.68
2019-01-14T06:40:02.808Z,84.24
2019-01-14T06:41:01.751Z,84.5
2019-01-14T06:42:02.098Z,84.38
2019-01-14T06:43:02.003Z,84.41
2019-01-14T06:44:02.004Z,84.6
2019-01-14T06:45:01.910Z,84.14
2019-01-14T06:46:01.933Z,84.3
2019-01-14T06:47:01.924Z,84.42
2019-01-14T06:48:01.949Z,84.31
2019-01-14T06:49:01.778Z,83.96
2019-01-14T06:50:01.996Z,83.53
2019-01-14T06:51:02.146Z,83.84
2019-01-14T06:52:03.097Z,84.03
2019-01-14T06:53:01.912Z,83.32
2019-01-14T06:54:01.890Z,83.83
2019-01-14T06:55:02.578Z,83.54
2019-01-14T06:56:01.732Z,83.29
2019-01-14T06:57:01.994Z,83.77
2019-01-14T06:59:01.898Z,83.56
2019-01-14T07:00:02.013Z,83.16
2019-01-14T07:01:01.680Z,83.54
2019-01-14T07:02:01.673Z,83.34
2019-01-14T07:03:02.151Z,83.58
2019-01-14T07:04:01.754Z,84.06
2019-01-14T07:05:01.947Z,83.33
2019-01-14T07:06:02.052Z,83.83
2019-01-14T07:07:02.169Z,83.97
2019-01-14T07:08:02.067Z,83.36
2019-01-14T07:09:01.745Z,83.6
2019-01-14T07:10:01.753Z,83.57
2019-01-14T07:11:02.189Z,83.66
2019-01-14T07:12:01.676Z,84.16
2019-01-14T07:13:01.897Z,83.48
2019-01-14T07:14:02.012Z,83.88
2019-01-14T07:15:02.217Z,83.51
2019-01-14T07:16:01.735Z,83.92
2019-01-14T07:17:01.747Z,83.98
2019-01-14T07:18:01.747Z,83.71
2019-01-14T07:19:01.961Z,83.73
2019-01-14T07:20:01.725Z,83.75
2019-01-14T07:21:01.719Z,83.8
2019-01-14T07:22:01.965Z,83.45
2019-01-14T07:23:01.662Z,83.77
2019-01-14T07:24:01.641Z,84.35
2019-01-14T07:25:01.895Z,84.16
2019-01-14T07:26:02.007Z,83.75
2019-01-14T07:27:01.648Z,83.68
2019-01-14T07:28:01.718Z,84.09
2019-01-14T07:29:02.010Z,84.19
2019-01-14T07:30:02.215Z,84.01
2019-01-14T07:31:01.613Z,83.58
2019-01-14T07:32:01.646Z,84.55
2019-01-14T07:33:01.645Z,84.02
2019-01-14T07:34:01.731Z,84.52
2019-01-14T07:35:02.263Z,84.3
2019-01-14T07:36:01.671Z,84.21
2019-01-14T07:37:01.676Z,84.64
2019-01-14T07:38:06.539Z,84.31
2019-01-14T07:39:02.081Z,84.81
2019-01-14T07:40:01.696Z,84.13
2019-01-14T07:41:02.301Z,84.01
2019-01-14T07:42:01.583Z,84.8
2019-01-14T07:43:02.052Z,84.38
2019-01-14T07:44:01.592Z,84.54
2019-01-14T07:45:01.613Z,84.55
2019-01-14T07:46:01.820Z,84.73
2019-01-14T07:47:01.624Z,85.01
2019-01-14T07:48:01.628Z,84.59
2019-01-14T07:49:01.577Z,84.62
2019-01-14T07:50:01.619Z,84.98
2019-01-14T07:51:01.737Z,84.44
2019-01-14T07:52:01.816Z,84.53
2019-01-14T07:53:02.063Z,85.06
2019-01-14T07:54:01.716Z,84.84
2019-01-14T07:55:01.874Z,84.56
2019-01-14T07:56:01.912Z,85.02
2019-01-14T07:57:01.936Z,85.03
2019-01-14T07:58:02.003Z,85.17
2019-01-14T07:59:02.014Z,85.11
2019-01-14T08:00:01.921Z,84.95
2019-01-14T08:01:01.629Z,85.07
2019-01-14T08:02:02.072Z,85.24
2019-01-14T08:03:01.748Z,84.85
2019-01-14T08:04:02.043Z,84.85
2019-01-14T08:05:01.713Z,85.47
2019-01-14T08:06:01.624Z,85.5
2019-01-14T08:07:02.165Z,84.82
2019-01-14T08:08:01.803Z,84.86
2019-01-14T08:09:01.872Z,84.89
2019-01-14T08:10:01.767Z,85.29
2019-01-14T08:11:01.999Z,85.2
2019-01-14T08:12:02.196Z,85.06
2019-01-14T08:13:01.587Z,84.84
2019-01-14T08:14:01.593Z,85.21
2019-01-14T08:15:01.730Z,85.48
2019-01-14T08:16:01.347Z,85.14
2019-01-14T08:17:01.828Z,85.19
2019-01-14T08:18:02.519Z,85.33
2019-01-14T08:19:01.679Z,85.73
2019-01-14T08:20:01.591Z,85.78
2019-01-14T08:21:01.694Z,86.27
2019-01-14T08:22:01.632Z,86.34
2019-01-14T08:23:01.580Z,86.43
2019-01-14T08:24:01.545Z,87.07
2019-01-14T08:25:02.388Z,87.2
2019-01-14T08:26:01.758Z,87.36
2019-01-14T08:27:01.995Z,87.22
2019-01-14T08:28:02.003Z,87.54
2019-01-14T08:29:01.550Z,87.7
2019-01-14T08:30:01.607Z,87.4
2019-01-14T08:31:03.409Z,87.73
2019-01-14T08:32:02.106Z,87.41
2019-01-14T08:33:01.831Z,87.8
2019-01-14T08:34:01.943Z,88.19
2019-01-14T08:35:01.848Z,87.8
2019-01-14T08:36:01.600Z,88.01
2019-01-14T08:37:01.614Z,88.16
2019-01-14T08:38:01.588Z,87.96
2019-01-14T08:39:01.773Z,88.2
2019-01-14T08:40:02.090Z,87.92
2019-01-14T08:41:01.561Z,88
2019-01-14T08:42:01.691Z,87.85
2019-01-14T08:43:01.761Z,87.32
2019-01-14T08:44:01.547Z,87.7
2019-01-14T08:45:01.942Z,87.81
2019-01-14T08:46:01.617Z,87.6
2019-01-14T08:47:01.626Z,87.76
2019-01-14T08:48:01.530Z,87.87
2019-01-14T08:49:01.720Z,87.72
2019-01-14T08:50:01.753Z,87.5
2019-01-14T08:51:01.864Z,87.62
2019-01-14T08:52:01.634Z,87.29
2019-01-14T08:53:02.205Z,87.1
2019-01-14T08:54:01.981Z,86.96
2019-01-14T08:55:01.786Z,87.26
2019-01-14T08:56:01.552Z,87.11
2019-01-14T08:57:01.652Z,87.03
2019-01-14T08:58:01.759Z,86.81
2019-01-14T08:59:01.662Z,86.51
2019-01-14T09:00:01.816Z,87.04
2019-01-14T09:01:02.136Z,86.69
2019-01-14T09:02:01.588Z,87.17
2019-01-14T09:03:01.744Z,87.17
2019-01-14T09:04:01.972Z,87.43
2019-01-14T09:05:02.413Z,87.49
2019-01-14T09:06:03.392Z,87.19
2019-01-14T09:07:01.793Z,87.51
2019-01-14T09:08:01.629Z,87.7
2019-01-14T09:09:01.585Z,87.04
2019-01-14T09:10:01.901Z,87.24
2019-01-14T09:11:02.055Z,87.51
2019-01-14T09:12:01.702Z,87.62
2019-01-14T09:13:01.494Z,87.95
2019-01-14T09:15:01.457Z,87.88
2019-01-14T09:16:01.636Z,88.2
2019-01-14T09:17:03.794Z,87.89
2019-01-14T09:18:03.012Z,87.6
2019-01-14T09:19:01.675Z,87.79
2019-01-14T09:20:01.421Z,87.76
2019-01-14T09:21:02.186Z,87.72
2019-01-14T09:22:01.455Z,87.61
2019-01-14T09:23:01.823Z,87.86
2019-01-14T09:24:01.996Z,87.61
2019-01-14T09:25:18.033Z,87.85
2019-01-14T09:26:01.537Z,87.96
2019-01-14T09:27:01.500Z,87.56
2019-01-14T09:28:01.755Z,88.06
2019-01-14T09:29:01.455Z,87.92
2019-01-14T09:30:01.196Z,87.81
2019-01-14T09:31:18.124Z,87.35
2019-01-14T09:32:01.912Z,87.78
2019-01-14T09:33:01.522Z,87.45
2019-01-14T09:34:01.543Z,87.41
2019-01-14T09:35:01.467Z,87.25
2019-01-14T09:36:01.460Z,87.5
2019-01-14T09:37:01.575Z,86.82
2019-01-14T09:38:01.663Z,87.01
2019-01-14T09:39:01.486Z,86.67
2019-01-14T09:40:01.487Z,86.69
2019-01-14T09:41:01.446Z,86.76
2019-01-14T09:42:03.260Z,84.91
2019-01-14T09:43:01.855Z,84.96
2019-01-14T09:44:02.346Z,84.91
2019-01-14T09:45:01.570Z,85.48
2019-01-14T09:46:01.667Z,85.22
2019-01-14T09:47:01.428Z,83.74
2019-01-14T09:48:01.765Z,84.54
2019-01-14T09:49:00.987Z,84.21
2019-01-14T09:50:01.754Z,83.59
2019-01-14T09:51:03.297Z,83.99
2019-01-14T09:52:01.423Z,83.74
2019-01-14T09:53:01.475Z,83.08
2019-01-14T09:54:01.513Z,83.52
2019-01-14T09:55:05.622Z,83.24
2019-01-14T09:56:01.695Z,83.45
2019-01-14T09:57:01.809Z,83
2019-01-14T09:58:01.494Z,83.55
2019-01-14T09:59:01.816Z,83.17
2019-01-14T10:00:01.574Z,83.11
2019-01-14T10:01:07.687Z,82.3
2019-01-14T10:02:04.969Z,82.96
2019-01-14T10:03:01.947Z,81.83
2019-01-14T10:04:01.479Z,81.43
2019-01-14T10:05:01.602Z,82.53
2019-01-14T10:06:01.488Z,82.16
2019-01-14T10:07:01.444Z,81.78
2019-01-14T10:08:01.380Z,82.19
2019-01-14T10:09:00.966Z,82.16
2019-01-14T10:10:01.479Z,82.41
2019-01-14T10:11:01.539Z,82.23
2019-01-14T10:12:01.866Z,82.62
2019-01-14T10:13:01.464Z,83.11
2019-01-14T10:14:01.673Z,81.72
2019-01-14T10:15:01.688Z,81.82
2019-01-14T10:16:02.522Z,82.07
2019-01-14T10:17:02.113Z,82.33
2019-01-14T10:18:01.805Z,82.16
2019-01-14T10:19:03.199Z,82.3
2019-01-14T10:20:02.022Z,81.93
2019-01-14T10:21:01.632Z,82.02
2019-01-14T10:22:01.831Z,82.24
2019-01-14T10:23:01.448Z,82.51
2019-01-14T10:24:01.497Z,82.8
2019-01-14T10:25:01.497Z,83.01
2019-01-14T10:26:01.366Z,82.34
2019-01-14T10:27:01.355Z,82.41
2019-01-14T10:28:01.592Z,82.27
2019-01-14T10:29:01.495Z,82.09
2019-01-14T10:30:01.421Z,81.71
2019-01-14T10:31:01.722Z,82.38
2019-01-14T10:32:01.805Z,81.87
2019-01-14T10:33:01.354Z,81.76
2019-01-14T10:34:03.065Z,82.1
2019-01-14T10:35:01.627Z,80.67
2019-01-14T10:36:01.510Z,80.84
2019-01-14T10:37:01.468Z,80.8
2019-01-14T10:38:02.071Z,81.59
2019-01-14T10:39:01.759Z,81.4
2019-01-14T10:40:01.350Z,81.68
2019-01-14T10:41:01.408Z,80.45
2019-01-14T10:42:04.995Z,80.2
2019-01-14T10:43:02.469Z,80.31
2019-01-14T10:44:01.371Z,79.94
2019-01-14T10:45:01.417Z,80.51
2019-01-14T10:46:01.512Z,80.29
2019-01-14T10:47:01.505Z,80.55
2019-01-14T10:48:01.480Z,80.46
2019-01-14T10:49:01.126Z,80.46
2019-01-14T10:50:01.402Z,80.23
2019-01-14T10:51:01.860Z,79.3
2019-01-14T10:52:01.747Z,79.99
2019-01-14T10:53:01.382Z,80.48
2019-01-14T10:54:01.677Z,80.35
2019-01-14T10:55:01.432Z,80.91
2019-01-14T10:56:01.571Z,80.43
2019-01-14T10:57:01.446Z,80.48
2019-01-14T10:58:01.687Z,79.68
2019-01-14T10:59:01.899Z,80.19
2019-01-14T11:00:02.541Z,80.11
2019-01-14T11:01:01.374Z,80.22
2019-01-14T11:02:01.445Z,80.06
2019-01-14T11:03:01.775Z,80.28
2019-01-14T11:04:01.366Z,80.23
2019-01-14T11:05:01.454Z,80.28
2019-01-14T11:06:01.869Z,79.8
2019-01-14T11:07:03.275Z,79.8
2019-01-14T11:08:01.300Z,79.12
2019-01-14T11:09:05.973Z,78.7
2019-01-14T11:10:01.468Z,79.05
2019-01-14T11:11:01.386Z,78.62
2019-01-14T11:12:01.301Z,78.98
2019-01-14T11:13:01.339Z,78.67
2019-01-14T11:14:01.240Z,79.25
2019-01-14T11:15:02.999Z,79.43
2019-01-14T11:16:01.301Z,79.07
2019-01-14T11:17:02.380Z,79.67
2019-01-14T11:18:01.385Z,79.35
2019-01-14T11:19:01.428Z,79.81
2019-01-14T11:20:01.291Z,79.34
2019-01-14T11:21:01.333Z,79.17
2019-01-14T11:22:01.259Z,79.45
2019-01-14T11:23:01.299Z,79.3
2019-01-14T11:24:01.873Z,79.4
2019-01-14T11:25:02.501Z,79.07
2019-01-14T11:26:01.287Z,79.34
2019-01-14T11:27:01.273Z,78.2
2019-01-14T11:28:01.320Z,78.59
2019-01-14T11:29:01.293Z,79.03
2019-01-14T11:30:01.280Z,79.31
2019-01-14T11:31:02.355Z,79.32
2019-01-14T11:32:01.290Z,78.6
2019-01-14T11:34:01.567Z,79.21
2019-01-14T11:35:01.340Z,78.22
2019-01-14T11:36:01.215Z,78.72
2019-01-14T11:37:01.266Z,78.24
2019-01-14T11:38:01.223Z,78.08
2019-01-14T11:39:05.092Z,77.72
2019-01-14T11:40:01.804Z,78.82
2019-01-14T11:41:01.332Z,78.88
2019-01-14T11:42:01.597Z,78.7
2019-01-14T11:43:01.701Z,78.86
2019-01-14T11:44:01.510Z,78.98
2019-01-14T11:45:01.456Z,78.1
2019-01-14T11:46:01.360Z,78.44
2019-01-14T11:47:02.045Z,78.66
2019-01-14T11:48:01.549Z,78.8
2019-01-14T11:49:01.268Z,78.92
2019-01-14T11:50:01.705Z,79.19
2019-01-14T11:51:01.454Z,79.36
2019-01-14T11:52:01.769Z,78.86
2019-01-14T11:53:01.569Z,79.54
2019-01-14T11:54:01.268Z,78.22
2019-01-14T11:55:01.271Z,79.21
2019-01-14T11:56:01.312Z,79.5
2019-01-14T11:57:01.494Z,81.82
2019-01-14T11:58:01.706Z,83.36
2019-01-14T11:59:01.283Z,85.11
2019-01-14T12:00:02.022Z,85.77
2019-01-14T12:01:02.158Z,86.68
2019-01-14T12:02:03.056Z,87.42
2019-01-14T12:03:01.331Z,89.67
2019-01-14T12:04:01.245Z,90.64
2019-01-14T12:05:01.291Z,92.01
2019-01-14T12:06:01.556Z,92.4
2019-01-14T12:07:01.703Z,92.98
2019-01-14T12:08:01.348Z,93.56
2019-01-14T12:09:01.896Z,93.64
2019-01-14T12:10:01.377Z,93.79
2019-01-14T12:11:01.008Z,93.92
2019-01-14T12:12:01.522Z,93.86
2019-01-14T12:13:01.212Z,94.05
2019-01-14T12:14:01.203Z,94.59
2019-01-14T12:15:01.526Z,94.36
2019-01-14T12:16:01.747Z,93.93
2019-01-14T12:17:01.256Z,94.64
2019-01-14T12:18:01.251Z,94.22
2019-01-14T12:19:01.953Z,94.31
2019-01-14T12:20:01.309Z,93.91
2019-01-14T12:21:01.319Z,93.78
2019-01-14T12:22:01.310Z,93.8
2019-01-14T12:23:01.275Z,94.46
2019-01-14T12:24:01.361Z,94.84
2019-01-14T12:25:01.261Z,94.8
2019-01-14T12:26:01.343Z,94.41
2019-01-14T12:27:01.515Z,94.34
2019-01-14T12:28:01.291Z,94.45
2019-01-14T12:29:01.268Z,94.67
2019-01-14T12:30:01.249Z,94.7
2019-01-14T12:31:01.632Z,94.93
2019-01-14T12:32:01.202Z,94.36
2019-01-14T12:33:02.206Z,94.13
2019-01-14T12:34:01.457Z,94.05
2019-01-14T12:35:01.198Z,94.12
2019-01-14T12:36:01.262Z,94.29
2019-01-14T12:37:01.470Z,94.33
2019-01-14T12:38:01.402Z,94.17
2019-01-14T12:39:01.486Z,94.58
2019-01-14T12:40:01.597Z,94.67
2019-01-14T12:41:01.597Z,93.89
2019-01-14T12:42:01.343Z,94.09
2019-01-14T12:43:03.056Z,94.19
2019-01-14T12:44:01.521Z,94.53
2019-01-14T12:45:01.325Z,94.33
2019-01-14T12:46:01.177Z,94.51
2019-01-14T12:47:01.431Z,94.55
2019-01-14T12:48:01.232Z,94.51
2019-01-14T12:49:01.342Z,94.97
2019-01-14T12:50:01.554Z,94.99
2019-01-14T12:51:02.043Z,94.78
2019-01-14T12:52:01.374Z,94.8
2019-01-14T12:53:01.230Z,94.02
2019-01-14T12:54:01.386Z,94.74
2019-01-14T12:55:01.206Z,94.76
2019-01-14T12:56:02.010Z,95.35
2019-01-14T12:57:01.303Z,95.56
2019-01-14T12:58:01.378Z,94.71